Time;durP1;ratioP1;P1;durP2;ratioP2;P2;SDS_P1;SDS_P2;PMS_P1;PMS_P2;Temp;Humidity;BMP_temperature;BMP_pressure;BME280_temperature;BME280_humidity;BME280_pressure;Samples;Min_cycle;Max_cycle;Signal;HPM_P1;HPM_P2
2023/06/07 00:00:15;;;;;;;21.60;18.67;;;8.60;99.90;;;;;;5037736;28;20083;-79
2023/06/07 00:02:41;;;;;;;25.63;20.67;;;8.60;99.90;;;;;;5054990;28;20072;-79
2023/06/07 00:05:12;;;;;;;27.35;20.27;;;8.60;99.90;;;;;;5054676;28;20041;-79
2023/06/07 00:07:46;;;;;;;24.85;18.60;;;8.60;99.90;;;;;;5054070;28;20056;-79
2023/06/07 00:10:21;;;;;;;21.58;17.92;;;8.60;99.90;;;;;;5045729;28;20041;-79
2023/06/07 00:12:55;;;;;;;18.33;15.57;;;8.50;99.90;;;;;;5034953;28;20044;-79
2023/06/07 00:15:21;;;;;;;17.10;15.00;;;8.50;99.90;;;;;;5046680;28;20044;-79
2023/06/07 00:17:52;;;;;;;18.73;16.73;;;8.50;99.90;;;;;;5052538;28;20561;-79
2023/06/07 00:20:26;;;;;;;20.50;17.00;;;8.50;99.90;;;;;;5028321;28;20037;-79
2023/06/07 00:23:04;;;;;;;23.05;17.73;;;8.50;99.90;;;;;;5046254;28;20036;-79
2023/06/07 00:25:30;;;;;;;19.55;16.95;;;8.40;99.90;;;;;;5047192;28;20047;-79
2023/06/07 00:28:06;;;;;;;21.13;17.95;;;8.50;99.90;;;;;;5035206;28;20033;-79
2023/06/07 00:30:37;;;;;;;18.05;16.08;;;8.40;99.90;;;;;;5045210;28;20040;-79
2023/06/07 00:33:20;;;;;;;25.70;19.50;;;8.30;99.90;;;;;;5039609;28;20055;-79
2023/06/07 00:35:55;;;;;;;20.00;17.05;;;8.30;99.90;;;;;;5038114;28;20048;-79
2023/06/07 00:38:32;;;;;;;18.38;16.48;;;8.30;99.90;;;;;;5038868;28;20074;-79
2023/06/07 00:41:04;;;;;;;20.00;16.58;;;8.20;99.90;;;;;;5044800;28;20068;-79
2023/06/07 00:43:30;;;;;;;21.63;18.33;;;8.20;99.90;;;;;;5043315;28;20036;-79
2023/06/07 00:46:03;;;;;;;19.88;17.73;;;8.10;99.90;;;;;;5038585;28;20045;-79
2023/06/07 00:48:31;;;;;;;19.13;16.67;;;8.10;99.90;;;;;;5045488;28;20490;-79
2023/06/07 00:50:59;;;;;;;19.73;16.90;;;8.10;99.90;;;;;;5054311;28;20043;-79
2023/06/07 00:53:28;;;;;;;21.80;16.90;;;8.10;99.90;;;;;;5046356;28;20041;-79
2023/06/07 00:56:02;;;;;;;20.27;18.02;;;8.00;99.90;;;;;;5053116;28;20421;-79
2023/06/07 00:58:28;;;;;;;18.65;16.75;;;8.00;99.90;;;;;;5056558;28;20032;-78
2023/06/07 01:01:00;;;;;;;22.33;18.98;;;7.90;99.90;;;;;;5045636;28;20132;-78
2023/06/07 01:03:30;;;;;;;23.23;17.38;;;7.90;99.90;;;;;;5053646;28;20566;-78
2023/06/07 01:05:58;;;;;;;24.45;19.75;;;7.90;99.90;;;;;;5053264;28;20453;-78
2023/06/07 01:08:27;;;;;;;18.85;16.40;;;7.90;99.90;;;;;;5049684;28;20071;-78
2023/06/07 01:10:53;;;;;;;22.58;18.73;;;7.90;99.90;;;;;;5042997;28;20032;-78
2023/06/07 01:13:24;;;;;;;18.65;16.60;;;7.90;99.90;;;;;;5032630;28;20079;-78
2023/06/07 01:15:59;;;;;;;24.20;20.08;;;7.80;99.90;;;;;;5017331;28;20040;-79
2023/06/07 01:18:27;;;;;;;19.67;17.42;;;7.80;99.90;;;;;;5024531;28;20044;-79
2023/06/07 01:20:59;;;;;;;19.40;17.42;;;7.70;99.90;;;;;;5045447;28;20396;-79
2023/06/07 01:23:29;;;;;;;;;;;7.70;99.90;;;;;;5037629;28;20445;-79
2023/06/07 01:25:58;;;;;;;21.05;16.67;;;7.70;99.90;;;;;;5035759;28;20007;-79
2023/06/07 01:28:34;;;;;;;24.27;20.17;;;7.70;99.90;;;;;;5044816;28;20036;-78
2023/06/07 01:31:09;;;;;;;18.85;16.92;;;7.60;99.90;;;;;;5045321;28;20391;-79
2023/06/07 01:33:44;;;;;;;22.02;18.52;;;7.60;99.90;;;;;;5053556;28;20047;-78
2023/06/07 01:36:15;;;;;;;20.00;17.88;;;7.60;99.90;;;;;;5051898;28;20509;-78
2023/06/07 01:38:56;;;;;;;18.60;16.27;;;7.60;99.90;;;;;;5047111;28;20036;-79
2023/06/07 01:41:25;;;;;;;19.13;16.98;;;7.60;99.90;;;;;;5033460;28;20495;-78
2023/06/07 01:43:51;;;;;;;18.00;16.10;;;7.60;99.90;;;;;;5034524;28;20083;-78
2023/06/07 01:46:29;;;;;;;21.00;18.88;;;7.50;99.90;;;;;;5053174;28;20458;-78
2023/06/07 01:48:58;;;;;;;18.77;16.77;;;7.50;99.90;;;;;;5043723;28;20055;-78
2023/06/07 01:51:27;;;;;;;25.38;19.60;;;7.50;99.90;;;;;;5046966;28;20105;-79
2023/06/07 01:53:58;;;;;;;20.85;17.92;;;7.60;99.90;;;;;;5064153;28;20032;-79
2023/06/07 01:56:51;;;;;;;25.98;21.95;;;7.50;99.90;;;;;;5036453;28;20041;-79
2023/06/07 01:59:52;;;;;;;28.10;22.63;;;7.50;99.90;;;;;;5044203;28;20044;-79
2023/06/07 02:02:27;;;;;;;28.38;23.58;;;7.50;99.90;;;;;;5032991;28;20049;-79
2023/06/07 02:05:05;;;;;;;30.58;25.13;;;7.60;99.90;;;;;;5049326;28;20032;-79
2023/06/07 02:07:40;;;;;;;26.00;22.25;;;7.70;99.90;;;;;;5033407;28;20041;-78
2023/06/07 02:10:08;;;;;;;34.42;24.55;;;7.80;99.90;;;;;;5057667;28;20041;-78
2023/06/07 02:12:42;;;;;;;37.60;26.98;;;7.80;99.90;;;;;;5044873;28;20494;-78
2023/06/07 02:15:09;;;;;;;28.33;23.67;;;8.00;99.90;;;;;;5077722;22;20140;-77
2023/06/07 02:17:48;;;;;;;25.60;22.15;;;7.90;99.90;;;;;;5069081;28;20132;-77
2023/06/07 02:20:13;;;;;;;31.35;24.25;;;8.10;99.90;;;;;;5045872;28;20086;-76
2023/06/07 02:22:39;;;;;;;38.90;25.67;;;8.10;99.90;;;;;;5073772;28;20486;-76
2023/06/07 02:25:05;;;;;;;26.00;22.58;;;8.20;99.90;;;;;;5074911;28;20033;-77
2023/06/07 02:27:31;;;;;;;27.67;21.55;;;8.30;99.90;;;;;;5076758;28;20131;-77
2023/06/07 02:29:56;;;;;;;22.90;19.23;;;8.30;99.90;;;;;;5072247;28;20126;-76
2023/06/07 02:32:22;;;;;;;28.30;22.02;;;8.30;99.90;;;;;;5060033;28;20039;-77
2023/06/07 02:34:47;;;;;;;31.60;22.48;;;8.40;99.90;;;;;;5093517;28;20036;-76
2023/06/07 02:37:13;;;;;;;29.65;22.55;;;8.40;99.90;;;;;;5093193;28;20089;-77
2023/06/07 02:39:38;;;;;;;29.38;21.80;;;8.50;99.90;;;;;;5071215;28;20028;-76
2023/06/07 02:42:04;;;;;;;24.23;19.77;;;8.50;99.90;;;;;;5055787;28;20071;-76
2023/06/07 02:44:30;;;;;;;22.73;20.33;;;8.50;99.90;;;;;;5076563;28;20028;-77
2023/06/07 02:46:55;;;;;;;26.65;21.05;;;8.50;99.90;;;;;;5074732;28;20068;-76
2023/06/07 02:49:21;;;;;;;26.70;20.90;;;8.60;99.90;;;;;;5087367;28;20072;-77
2023/06/07 02:51:47;;;;;;;28.27;22.00;;;8.60;99.90;;;;;;5073187;28;20046;-76
2023/06/07 02:54:15;;;;;;;25.42;20.73;;;8.60;99.90;;;;;;5073055;28;20409;-77
2023/06/07 02:56:41;;;;;;;29.42;21.50;;;8.70;99.90;;;;;;5075844;28;20111;-76
2023/06/07 02:59:06;;;;;;;25.95;20.55;;;8.70;99.90;;;;;;5074350;28;20462;-76
2023/06/07 03:01:33;;;;;;;29.52;21.23;;;8.70;99.90;;;;;;5051169;28;20036;-76
2023/06/07 03:03:59;;;;;;;29.27;20.50;;;8.70;99.90;;;;;;5076134;28;20111;-77
2023/06/07 03:06:29;;;;;;;28.00;21.58;;;8.70;99.90;;;;;;5075445;28;20127;-76
2023/06/07 03:08:55;;;;;;;23.58;20.52;;;8.70;99.90;;;;;;5073039;28;20067;-76
2023/06/07 03:11:21;;;;;;;30.55;21.88;;;8.70;99.90;;;;;;5076007;28;20090;-76
2023/06/07 03:13:47;;;;;;;28.80;21.55;;;8.70;99.90;;;;;;5092834;28;20517;-76
2023/06/07 03:16:12;;;;;;;28.63;21.90;;;8.80;99.90;;;;;;5092634;28;20058;-77
2023/06/07 03:18:38;;;;;;;26.63;21.30;;;8.70;99.90;;;;;;5081654;28;20031;-76
2023/06/07 03:21:03;;;;;;;27.30;20.27;;;8.80;99.90;;;;;;5064267;28;20035;-76
2023/06/07 03:23:30;;;;;;;31.92;22.27;;;8.80;99.90;;;;;;5076009;28;20115;-76
2023/06/07 03:25:57;;;;;;;24.45;20.52;;;8.80;99.90;;;;;;5058751;28;20036;-76
2023/06/07 03:28:22;;;;;;;29.02;20.65;;;8.80;99.90;;;;;;5086260;28;20530;-77
2023/06/07 03:30:48;;;;;;;24.70;19.48;;;8.90;99.90;;;;;;5072442;28;20119;-76
2023/06/07 03:33:14;;;;;;;26.48;21.75;;;8.90;99.90;;;;;;5078962;28;20486;-76
2023/06/07 03:35:39;;;;;;;30.25;21.17;;;8.90;99.90;;;;;;5087889;28;20036;-76
2023/06/07 03:38:05;;;;;;;28.10;21.63;;;8.90;99.90;;;;;;5057121;28;20486;-76
2023/06/07 03:40:31;;;;;;;25.58;20.65;;;9.00;99.90;;;;;;5063799;28;20028;-76
2023/06/07 03:42:58;;;;;;;25.58;20.70;;;9.00;99.90;;;;;;5071976;28;20041;-77
2023/06/07 03:45:24;;;;;;;25.92;20.52;;;9.00;99.90;;;;;;5072124;28;20083;-76
2023/06/07 03:47:50;;;;;;;30.33;21.20;;;9.10;99.90;;;;;;5080987;28;20514;-76
2023/06/07 03:50:15;;;;;;;26.30;19.52;;;9.10;99.90;;;;;;5092023;28;20111;-76
2023/06/07 03:52:41;;;;;;;30.35;20.25;;;9.10;99.90;;;;;;5075550;28;20080;-76
2023/06/07 03:55:08;;;;;;;27.23;20.75;;;9.10;99.90;;;;;;5075277;28;20051;-77
2023/06/07 03:57:34;;;;;;;23.40;19.45;;;9.10;99.90;;;;;;5092797;28;20059;-77
2023/06/07 04:00:00;;;;;;;21.42;19.13;;;9.20;99.90;;;;;;5075019;28;20028;-76
2023/06/07 04:02:27;;;;;;;25.58;19.90;;;9.20;99.90;;;;;;5091922;28;20174;-77
2023/06/07 04:04:54;;;;;;;25.45;19.55;;;9.20;99.90;;;;;;5075037;28;20044;-76
2023/06/07 04:07:19;;;;;;;27.27;20.08;;;9.20;99.90;;;;;;5058270;28;20078;-77
2023/06/07 04:09:45;;;;;;;26.25;18.35;;;9.30;99.90;;;;;;5072863;28;20071;-77
2023/06/07 04:12:11;;;;;;;25.25;18.58;;;9.30;99.90;;;;;;5071332;28;20037;-76
2023/06/07 04:14:37;;;;;;;24.83;18.33;;;9.30;99.90;;;;;;5038345;28;20127;-76
2023/06/07 04:17:02;;;;;;;25.25;17.70;;;9.30;99.90;;;;;;5037694;28;20124;-76
2023/06/07 04:19:28;;;;;;;23.25;17.30;;;9.40;99.90;;;;;;5052456;28;20494;-76
2023/06/07 04:21:54;;;;;;;22.23;16.83;;;9.50;99.90;;;;;;5074268;28;20040;-77
2023/06/07 04:24:19;;;;;;;23.17;17.35;;;9.50;99.90;;;;;;5071468;28;20112;-76
2023/06/07 04:26:47;;;;;;;22.42;16.40;;;9.60;99.90;;;;;;5054511;28;20043;-76
2023/06/07 04:29:14;;;;;;;20.27;15.82;;;9.70;99.90;;;;;;5061778;28;20097;-76
2023/06/07 04:31:41;;;;;;;21.02;16.08;;;9.70;99.90;;;;;;5054524;28;20049;-77
2023/06/07 04:34:09;;;;;;;24.08;16.90;;;9.80;99.90;;;;;;5054469;28;20098;-77
2023/06/07 04:36:37;;;;;;;23.80;16.30;;;9.90;99.90;;;;;;5059756;28;20032;-77
2023/06/07 04:39:05;;;;;;;22.85;15.43;;;9.90;99.90;;;;;;5061267;28;20072;-77
2023/06/07 04:41:32;;;;;;;23.42;15.95;;;10.00;99.90;;;;;;5088249;28;20107;-77
2023/06/07 04:44:00;;;;;;;23.85;16.92;;;10.10;99.90;;;;;;5054055;28;20766;-76
2023/06/07 04:46:26;;;;;;;25.40;17.13;;;10.10;99.90;;;;;;5072575;28;20141;-76
2023/06/07 04:48:52;;;;;;;22.95;16.88;;;10.20;99.90;;;;;;5068887;28;20068;-76
2023/06/07 04:51:20;;;;;;;23.52;15.40;;;10.30;99.90;;;;;;5063409;28;20521;-76
2023/06/07 04:53:46;;;;;;;19.67;15.10;;;10.30;99.90;;;;;;5085826;28;20040;-77
2023/06/07 04:56:12;;;;;;;21.80;14.85;;;10.40;99.90;;;;;;5078228;28;20032;-76
2023/06/07 04:58:41;;;;;;;23.50;14.90;;;10.50;99.90;;;;;;5066357;28;20089;-76
2023/06/07 05:01:10;;;;;;;18.67;14.05;;;10.60;99.90;;;;;;5070408;28;20039;-76
2023/06/07 05:03:38;;;;;;;17.92;13.23;;;10.80;99.90;;;;;;5071754;28;20040;-76
2023/06/07 05:06:06;;;;;;;19.02;13.48;;;10.90;99.90;;;;;;5040681;28;20032;-76
2023/06/07 05:08:32;;;;;;;20.25;13.55;;;11.00;99.90;;;;;;5073969;28;20036;-75
2023/06/07 05:10:58;;;;;;;21.80;12.95;;;11.00;99.90;;;;;;5068527;28;20035;-77
2023/06/07 05:13:26;;;;;;;20.35;12.90;;;11.10;99.90;;;;;;5067528;28;20032;-77
2023/06/07 05:15:52;;;;;;;20.77;12.60;;;11.10;99.90;;;;;;5071767;28;20600;-78
2023/06/07 05:18:19;;;;;;;18.73;11.98;;;11.20;99.90;;;;;;5073727;28;20127;-77
2023/06/07 05:20:48;;;;;;;17.38;11.98;;;11.20;99.90;;;;;;5090589;28;20044;-77
2023/06/07 05:23:16;;;;;;;20.15;12.38;;;11.30;99.90;;;;;;5073617;28;20036;-78
2023/06/07 05:25:46;;;;;;;22.20;12.52;;;11.30;99.90;;;;;;5053455;28;20127;-78
2023/06/07 05:28:12;;;;;;;18.38;11.65;;;11.50;99.90;;;;;;5074785;28;20027;-77
2023/06/07 05:30:37;;;;;;;23.60;12.27;;;11.60;99.90;;;;;;5072024;28;20379;-78
2023/06/07 05:33:04;;;;;;;18.70;10.98;;;11.70;99.90;;;;;;5073804;28;20145;-78
2023/06/07 05:35:30;;;;;;;20.30;11.13;;;11.90;99.90;;;;;;5055732;28;20118;-78
2023/06/07 05:37:55;;;;;;;16.63;10.38;;;11.90;99.90;;;;;;5063335;28;20037;-78
2023/06/07 05:40:21;;;;;;;17.13;10.60;;;12.10;99.90;;;;;;5070513;28;20029;-78
2023/06/07 05:42:50;;;;;;;17.98;10.65;;;12.10;99.90;;;;;;5070639;28;20407;-78
2023/06/07 05:45:16;;;;;;;18.75;9.75;;;12.30;99.90;;;;;;5062251;28;20458;-77
2023/06/07 05:47:43;;;;;;;18.52;10.30;;;12.40;99.90;;;;;;5064996;28;20477;-77
2023/06/07 05:50:10;;;;;;;16.00;9.35;;;12.50;99.90;;;;;;5073425;28;20051;-76
2023/06/07 05:52:37;;;;;;;16.10;8.88;;;12.50;99.90;;;;;;5071928;28;20105;-77
2023/06/07 05:55:03;;;;;;;18.65;9.18;;;12.50;99.90;;;;;;5056557;28;20474;-77
2023/06/07 05:57:29;;;;;;;19.95;8.98;;;12.50;99.90;;;;;;5083068;28;20131;-76
2023/06/07 05:59:55;;;;;;;17.38;9.77;;;12.50;99.90;;;;;;5055919;28;20055;-77
2023/06/07 06:02:20;;;;;;;18.33;9.40;;;12.50;99.90;;;;;;5056037;28;20029;-77
2023/06/07 06:04:47;;;;;;;17.67;9.07;;;12.50;99.90;;;;;;5077130;28;20040;-77
2023/06/07 06:07:15;;;;;;;21.42;9.30;;;12.60;99.90;;;;;;5076930;28;20126;-77
2023/06/07 06:09:41;;;;;;;15.63;8.23;;;12.70;99.90;;;;;;5068625;28;20504;-77
2023/06/07 06:12:07;;;;;;;21.02;9.23;;;12.70;99.90;;;;;;5067849;28;20544;-78
2023/06/07 06:14:33;;;;;;;18.75;8.95;;;12.90;99.90;;;;;;5059655;28;20036;-78
2023/06/07 06:16:58;;;;;;;15.65;8.73;;;12.90;99.90;;;;;;5078281;28;20486;-77
2023/06/07 06:19:25;;;;;;;18.48;8.75;;;13.00;99.90;;;;;;5070977;28;20033;-77
2023/06/07 06:21:51;;;;;;;16.20;8.98;;;13.00;99.90;;;;;;5074067;28;20032;-78
2023/06/07 06:24:16;;;;;;;18.88;9.05;;;13.10;99.90;;;;;;5060213;28;20447;-77
2023/06/07 06:26:42;;;;;;;20.92;9.05;;;13.20;99.90;;;;;;5090335;28;20599;-77
2023/06/07 06:29:07;;;;;;;18.08;8.77;;;13.20;99.90;;;;;;5060047;28;20081;-78
2023/06/07 06:31:33;;;;;;;19.00;8.77;;;13.20;99.90;;;;;;5077019;28;20081;-77
2023/06/07 06:33:59;;;;;;;16.70;8.98;;;13.30;99.90;;;;;;5074814;28;20404;-78
2023/06/07 06:36:26;;;;;;;16.05;8.30;;;13.40;99.90;;;;;;5082941;28;20028;-77
2023/06/07 06:38:52;;;;;;;16.80;8.80;;;13.50;99.90;;;;;;5090299;28;20063;-77
2023/06/07 06:41:17;;;;;;;15.10;8.35;;;13.60;99.90;;;;;;5073240;28;20494;-78
2023/06/07 06:43:43;;;;;;;15.57;7.75;;;13.70;99.90;;;;;;5076642;28;20043;-78
2023/06/07 06:46:09;;;;;;;19.08;9.73;;;13.80;99.90;;;;;;5080586;28;20035;-78
2023/06/07 06:48:36;;;;;;;16.75;8.20;;;14.00;99.90;;;;;;5073172;28;20032;-77
2023/06/07 06:51:01;;;;;;;17.00;7.90;;;14.20;99.90;;;;;;5090010;28;20040;-78
2023/06/07 06:53:27;;;;;;;15.95;7.93;;;14.40;99.90;;;;;;5073049;28;20090;-78
2023/06/07 06:55:52;;;;;;;17.02;8.18;;;14.60;99.90;;;;;;5072670;28;20033;-78
2023/06/07 06:58:19;;;;;;;16.45;7.63;;;14.70;99.90;;;;;;5072789;28;20084;-78
2023/06/07 07:00:44;;;;;;;14.82;7.45;;;14.60;99.90;;;;;;5088922;28;20029;-78
2023/06/07 07:03:10;;;;;;;15.68;7.38;;;14.40;99.90;;;;;;5072705;28;20140;-78
2023/06/07 07:05:36;;;;;;;15.05;6.78;;;14.50;99.90;;;;;;5089403;28;20059;-78
2023/06/07 07:08:06;;;;;;;15.40;6.90;;;14.50;99.90;;;;;;5072551;28;20086;-78
2023/06/07 07:10:32;;;;;;;13.05;7.07;;;14.60;99.90;;;;;;5092171;28;20490;-78
2023/06/07 07:12:58;;;;;;;17.80;7.28;;;14.80;99.90;;;;;;5075661;28;20036;-78
2023/06/07 07:15:23;;;;;;;18.52;7.05;;;15.00;99.90;;;;;;5058990;28;20044;-78
2023/06/07 07:17:50;;;;;;;16.73;6.60;;;15.10;99.90;;;;;;5092584;28;20177;-78
2023/06/07 07:20:17;;;;;;;14.10;6.75;;;15.20;99.90;;;;;;5059421;28;20067;-78
2023/06/07 07:22:44;;;;;;;16.05;6.57;;;15.30;99.90;;;;;;5058811;28;20679;-78
2023/06/07 07:25:10;;;;;;;15.50;6.63;;;15.50;99.90;;;;;;5075765;28;20067;-78
2023/06/07 07:27:36;;;;;;;13.27;5.85;;;15.70;99.90;;;;;;5092371;28;20040;-77
2023/06/07 07:30:04;;;;;;;14.25;6.20;;;15.80;99.90;;;;;;5092548;28;20048;-77
2023/06/07 07:32:30;;;;;;;11.90;5.18;;;15.80;99.90;;;;;;5059446;28;20523;-78
2023/06/07 07:34:56;;;;;;;14.25;5.43;;;15.80;99.90;;;;;;5056106;28;20486;-77
2023/06/07 07:37:21;;;;;;;13.93;5.93;;;15.80;99.90;;;;;;5071803;28;20066;-78
2023/06/07 07:39:47;;;;;;;12.35;5.70;;;15.90;99.90;;;;;;5055509;28;20414;-78
2023/06/07 07:42:13;;;;;;;13.55;6.05;;;16.20;99.90;;;;;;5055481;28;20453;-77
2023/06/07 07:44:38;;;;;;;11.63;5.40;;;16.30;99.90;;;;;;5072276;28;20036;-78
2023/06/07 07:47:07;;;;;;;13.20;5.50;;;16.50;99.90;;;;;;5071744;28;20040;-78
2023/06/07 07:49:32;;;;;;;8.80;5.03;;;16.80;99.90;;;;;;5071306;28;20032;-78
2023/06/07 07:51:58;;;;;;;10.73;5.25;;;17.30;99.90;;;;;;5055281;28;20036;-78
2023/06/07 07:54:24;;;;;;;11.90;4.93;;;18.00;99.90;;;;;;5071935;28;20041;-77
2023/06/07 07:56:49;;;;;;;12.65;5.18;;;18.50;99.90;;;;;;5071489;28;20180;-78
2023/06/07 07:59:15;;;;;;;10.95;4.65;;;18.60;99.90;;;;;;5071899;28;20135;-78
2023/06/07 08:01:41;;;;;;;11.27;4.60;;;18.30;99.90;;;;;;5055115;28;20490;-78
2023/06/07 08:04:06;;;;;;;14.18;5.85;;;18.20;99.90;;;;;;5084425;28;20378;-78
2023/06/07 08:06:32;;;;;;;10.98;5.50;;;18.00;99.90;;;;;;5074581;28;20043;-78
2023/06/07 08:08:58;;;;;;;11.98;5.05;;;17.60;99.90;;;;;;5065747;28;20656;-78
2023/06/07 08:11:24;;;;;;;13.48;5.38;;;17.80;99.90;;;;;;5091692;28;20450;-78
2023/06/07 08:13:49;;;;;;;10.50;4.85;;;18.30;99.90;;;;;;5058370;28;20075;-78
2023/06/07 08:16:30;;;;;;;8.27;4.75;;;18.90;99.90;;;;;;5158276;22;20088;-78
2023/06/07 08:25:57;;;;;;;10.70;4.97;;;21.50;86.50;;;;;;5033052;28;20483;-79
2023/06/07 08:28:35;;;;;;;10.95;4.35;;;21.50;77.30;;;;;;5000125;28;20041;-79
2023/06/07 08:31:12;;;;;;;10.55;4.45;;;21.50;79.30;;;;;;4999505;28;20042;-79
2023/06/07 08:34:11;;;;;;;9.35;4.43;;;21.50;80.90;;;;;;5035496;28;20053;-79
2023/06/07 08:37:03;;;;;;;9.55;4.38;;;21.80;79.40;;;;;;4995236;28;20403;-79
2023/06/07 08:39:54;;;;;;;10.73;4.30;;;22.00;74.00;;;;;;5027566;28;20081;-79
2023/06/07 08:42:52;;;;;;;9.85;4.07;;;22.20;74.80;;;;;;5016450;28;20545;-79
2023/06/07 08:45:44;;;;;;;8.70;4.60;;;22.40;74.10;;;;;;5028443;28;20036;-80
2023/06/07 08:51:45;;;;;;;8.73;4.25;;;22.30;71.10;;;;;;5022209;28;20098;-79
2023/06/07 08:54:29;;;;;;;8.82;4.30;;;22.50;72.70;;;;;;5017867;28;20048;-79
2023/06/07 08:57:09;;;;;;;10.85;4.43;;;22.90;67.40;;;;;;5000622;28;20067;-79
2023/06/07 09:00:16;;;;;;;12.57;4.43;;;22.70;71.00;;;;;;5012099;28;20045;-79
2023/06/07 09:02:54;;;;;;;10.02;4.38;;;23.10;68.30;;;;;;4997413;28;20104;-80
2023/06/07 09:05:35;;;;;;;10.20;4.40;;;23.20;64.70;;;;;;4993395;28;20478;-79
2023/06/07 09:08:13;;;;;;;;;;;;;;;;;;;;;
2023/06/07 09:11:02;;;;;;;10.75;4.47;;;22.70;69.10;;;;;;5013137;28;20046;-79
2023/06/07 09:13:46;;;;;;;8.68;4.15;;;22.90;70.90;;;;;;5001883;28;20068;-79
2023/06/07 09:16:22;;;;;;;9.05;4.43;;;23.60;65.80;;;;;;5011383;28;20046;-79
2023/06/07 09:19:02;;;;;;;10.50;4.22;;;23.60;64.70;;;;;;5013061;28;20120;-79
2023/06/07 09:21:32;;;;;;;;;;;23.50;66.90;;;;;;4984465;28;20046;-79
2023/06/07 09:24:07;;;;;;;10.00;4.10;;;23.70;66.80;;;;;;5005527;28;19960;-79
2023/06/07 09:26:39;;;;;;;8.95;4.65;;;23.70;65.50;;;;;;4998684;28;20045;-79
2023/06/07 09:29:11;;;;;;;11.05;4.25;;;23.90;63.30;;;;;;5016645;28;20053;-79
2023/06/07 09:31:44;;;;;;;9.27;4.18;;;24.00;64.90;;;;;;5004227;28;20038;-79
2023/06/07 09:34:22;;;;;;;;;;;24.30;62.10;;;;;;5018963;28;20400;-80
2023/06/07 09:37:01;;;;;;;7.97;4.60;;;24.40;61.40;;;;;;5039295;28;19966;-79
2023/06/07 09:39:33;;;;;;;9.93;4.43;;;24.40;61.20;;;;;;5009531;28;20045;-79
2023/06/07 09:42:01;;;;;;;9.27;4.13;;;24.40;61.20;;;;;;5022342;28;20041;-79
2023/06/07 09:44:28;;;;;;;11.50;4.28;;;24.30;64.30;;;;;;5019399;28;21712;-79
2023/06/07 09:46:58;;;;;;;11.63;4.68;;;24.80;60.50;;;;;;5018179;28;20048;-80
2023/06/07 09:49:33;;;;;;;12.07;4.43;;;24.90;62.90;;;;;;5020771;28;20038;-80
2023/06/07 09:52:02;;;;;;;8.50;4.10;;;25.20;58.80;;;;;;5037083;28;20056;-80
2023/06/07 09:54:42;;;;;;;8.38;4.30;;;25.10;60.80;;;;;;5031776;28;20050;-79
2023/06/07 09:57:26;;;;;;;7.85;4.07;;;25.50;57.70;;;;;;5018438;28;20120;-79
2023/06/07 10:00:07;;;;;;;9.27;4.40;;;25.30;59.30;;;;;;5022102;28;20048;-80
2023/06/07 10:02:33;;;;;;;8.73;4.30;;;25.30;58.40;;;;;;5015792;28;20139;-79
2023/06/07 10:05:00;;;;;;;8.48;4.22;;;25.20;59.80;;;;;;5015916;28;20119;-79
2023/06/07 10:07:39;;;;;;;9.70;4.22;;;25.50;56.60;;;;;;5018991;28;20045;-80
2023/06/07 10:10:06;;;;;;;9.80;4.45;;;25.30;58.80;;;;;;5018307;28;20580;-79
2023/06/07 10:12:38;;;;;;;10.23;4.20;;;25.70;57.20;;;;;;5017906;28;20048;-79
2023/06/07 10:15:10;;;;;;;9.75;4.03;;;25.40;57.70;;;;;;5018609;28;20045;-78
2023/06/07 10:17:45;;;;;;;9.20;4.60;;;25.20;61.80;;;;;;5012873;28;20037;-79
2023/06/07 10:20:16;;;;;;;13.80;4.80;;;25.80;58.90;;;;;;5018431;28;20037;-79
2023/06/07 10:22:44;;;;;;;9.77;4.65;;;26.10;59.10;;;;;;5010129;28;20124;-79
2023/06/07 10:25:16;;;;;;;9.02;4.53;;;26.40;60.30;;;;;;5030353;28;20049;-79
2023/06/07 10:28:16;;;;;;;8.13;4.00;;;26.90;58.80;;;;;;5018059;28;20025;-80
2023/06/07 10:30:52;;;;;;;9.73;4.63;;;27.40;56.60;;;;;;5014717;28;20125;-80
2023/06/07 10:33:18;;;;;;;8.65;3.85;;;27.60;54.50;;;;;;4998808;28;20046;-79
2023/06/07 10:35:45;;;;;;;6.68;3.80;;;27.40;55.90;;;;;;5016533;28;20034;-79
2023/06/07 10:38:12;;;;;;;8.50;4.28;;;27.70;54.50;;;;;;5016186;28;20034;-79
2023/06/07 10:40:39;;;;;;;18.15;4.65;;;27.70;53.30;;;;;;5032703;28;20502;-79
2023/06/07 10:43:05;;;;;;;7.35;4.47;;;27.40;53.10;;;;;;5032391;28;20045;-79
2023/06/07 10:45:31;;;;;;;9.25;4.60;;;27.10;53.80;;;;;;5030818;28;20041;-79
2023/06/07 10:48:17;;;;;;;7.88;4.38;;;27.10;53.40;;;;;;5032890;28;20042;-78
2023/06/07 10:50:49;;;;;;;9.25;4.00;;;26.40;56.00;;;;;;5007252;28;20115;-79
2023/06/07 10:53:15;;;;;;;9.85;4.45;;;26.50;55.60;;;;;;5016472;28;20052;-79
2023/06/07 10:55:41;;;;;;;10.63;4.22;;;26.50;57.50;;;;;;5009805;28;20045;-78
2023/06/07 10:58:29;;;;;;;9.82;4.50;;;26.80;55.90;;;;;;5032923;28;20484;-78
2023/06/07 11:00:56;;;;;;;10.32;4.70;;;26.90;55.20;;;;;;5023359;28;20037;-79
2023/06/07 11:03:22;;;;;;;8.00;4.18;;;26.60;55.00;;;;;;5023699;28;20453;-79
2023/06/07 11:06:05;;;;;;;9.10;4.28;;;26.50;55.30;;;;;;5020076;28;20097;-79
2023/06/07 11:08:36;;;;;;;10.50;4.57;;;26.70;54.00;;;;;;5021248;28;20045;-79
2023/06/07 11:11:04;;;;;;;8.32;4.50;;;26.40;54.40;;;;;;5038211;28;20041;-79
2023/06/07 11:13:45;;;;;;;8.77;4.18;;;26.50;55.00;;;;;;5040116;28;20046;-79
2023/06/07 11:16:23;;;;;;;9.35;4.43;;;26.60;57.00;;;;;;5021773;28;20041;-79
2023/06/07 11:18:56;;;;;;;8.57;4.18;;;27.20;53.80;;;;;;5020738;28;20099;-79
2023/06/07 11:21:42;;;;;;;7.20;4.60;;;27.30;53.20;;;;;;5037147;28;20042;-78
2023/06/07 11:24:12;;;;;;;11.23;4.15;;;27.40;52.60;;;;;;5038709;28;20126;-80
2023/06/07 11:26:41;;;;;;;7.78;4.20;;;27.40;52.80;;;;;;5013887;28;20037;-79
2023/06/07 11:29:08;;;;;;;7.78;4.15;;;27.20;54.40;;;;;;5029875;28;20078;-79
2023/06/07 11:31:40;;;;;;;9.38;4.72;;;27.60;56.70;;;;;;5007376;28;20038;-79
2023/06/07 11:34:09;;;;;;;8.13;4.03;;;28.40;52.90;;;;;;5011288;28;20046;-80
2023/06/07 11:36:35;;;;;;;8.45;3.88;;;28.60;52.20;;;;;;5014646;28;20053;-78
2023/06/07 11:39:06;;;;;;;8.27;3.67;;;28.90;50.80;;;;;;5008206;28;20381;-78
2023/06/07 11:41:32;;;;;;;7.57;4.18;;;28.70;52.20;;;;;;5016033;28;20044;-79
2023/06/07 11:44:01;;;;;;;7.13;3.92;;;28.70;52.00;;;;;;5015790;28;20125;-77
2023/06/07 11:46:35;;;;;;;8.88;4.22;;;28.80;52.80;;;;;;5016042;28;20049;-77
2023/06/07 11:49:09;;;;;;;8.13;4.63;;;29.00;51.90;;;;;;5013081;28;20047;-77
2023/06/07 11:51:38;;;;;;;8.88;4.20;;;28.80;51.70;;;;;;5018371;28;20049;-77
2023/06/07 11:54:05;;;;;;;7.07;3.80;;;28.50;52.40;;;;;;5041649;28;20115;-77
2023/06/07 11:56:36;;;;;;;8.73;3.97;;;28.60;52.90;;;;;;5024857;28;20037;-77
2023/06/07 11:59:13;;;;;;;7.57;3.67;;;28.90;51.50;;;;;;5018596;28;20047;-78
2023/06/07 12:01:40;;;;;;;7.80;4.13;;;28.90;52.00;;;;;;5016999;28;20041;-79
2023/06/07 12:04:15;;;;;;;8.55;3.92;;;29.20;49.70;;;;;;5024602;28;20045;-78
2023/06/07 12:06:42;;;;;;;8.93;4.30;;;28.90;51.40;;;;;;5015968;28;20056;-79
2023/06/07 12:09:13;;;;;;;9.00;3.70;;;28.70;50.20;;;;;;5018602;28;20053;-78
2023/06/07 12:11:48;;;;;;;6.90;3.65;;;28.40;50.70;;;;;;5009032;28;20053;-78
2023/06/07 12:14:38;;;;;;;12.55;4.15;;;28.30;50.40;;;;;;5011649;28;20132;-79
2023/06/07 12:17:13;;;;;;;6.97;3.50;;;28.10;54.40;;;;;;5018886;28;20033;-78
2023/06/07 12:19:42;;;;;;;7.95;4.03;;;28.20;53.50;;;;;;5018891;28;20042;-78
2023/06/07 12:22:16;;;;;;;8.73;3.63;;;28.60;51.20;;;;;;5019023;28;20041;-78
2023/06/07 12:24:47;;;;;;;6.90;3.85;;;28.60;52.70;;;;;;5019159;28;20033;-78
2023/06/07 12:27:31;;;;;;;6.85;3.88;;;28.70;51.80;;;;;;5030837;28;20049;-78
2023/06/07 12:29:57;;;;;;;7.10;4.05;;;29.30;54.10;;;;;;5019539;28;20148;-79
2023/06/07 12:32:27;;;;;;;8.85;3.78;;;30.10;51.40;;;;;;5027131;28;20388;-78
2023/06/07 12:35:07;;;;;;;7.80;3.90;;;30.60;48.00;;;;;;5030655;28;20427;-78
2023/06/07 12:37:36;;;;;;;7.18;4.00;;;30.70;49.80;;;;;;5047448;28;20056;-78
2023/06/07 12:40:09;;;;;;;6.05;3.72;;;31.00;48.20;;;;;;5038577;28;20067;-79
2023/06/07 12:42:35;;;;;;;9.23;3.67;;;30.80;46.60;;;;;;5073568;28;20041;-78
2023/06/07 12:45:04;;;;;;;8.70;3.95;;;30.20;49.90;;;;;;5033216;28;20053;-78
2023/06/07 12:47:33;;;;;;;7.38;4.00;;;30.20;51.00;;;;;;5031166;28;20127;-78
2023/06/07 12:50:05;;;;;;;9.60;3.47;;;30.40;50.00;;;;;;5030156;28;20099;-78
2023/06/07 12:52:34;;;;;;;9.40;3.80;;;30.40;49.50;;;;;;5033446;28;20080;-78
2023/06/07 12:55:00;;;;;;;8.38;4.00;;;30.40;49.90;;;;;;5039036;28;20187;-78
2023/06/07 12:57:26;;;;;;;7.40;3.83;;;30.60;51.00;;;;;;5055241;28;20506;-78
2023/06/07 12:59:52;;;;;;;6.13;3.60;;;30.90;51.20;;;;;;5032690;28;20045;-78
2023/06/07 13:02:18;;;;;;;9.00;3.60;;;31.30;46.30;;;;;;5029564;28;20036;-78
2023/06/07 13:04:44;;;;;;;7.10;4.00;;;30.30;47.30;;;;;;5028467;28;20072;-79